createdAt,value
2022-10-14T00:01:13.951Z,15.02
2022-10-14T00:03:43.060Z,15.19
2022-10-14T00:06:15.122Z,15.16
2022-10-14T00:08:43.214Z,15.06
2022-10-14T00:11:20.044Z,15.10
2022-10-14T00:13:47.447Z,15.18
2022-10-14T00:16:32.452Z,15.15
2022-10-14T00:18:59.597Z,15.10
2022-10-14T00:21:28.185Z,15.12
2022-10-14T00:23:55.932Z,15.12
2022-10-14T00:26:30.807Z,15.09
2022-10-14T00:28:59.163Z,15.13
2022-10-14T00:31:27.011Z,15.10
2022-10-14T00:33:54.462Z,15.12
2022-10-14T00:36:23.364Z,15.13
2022-10-14T00:38:51.953Z,15.14
2022-10-14T00:41:24.059Z,15.18
2022-10-14T00:43:57.391Z,15.19
2022-10-14T00:46:26.750Z,15.19
2022-10-14T00:48:54.132Z,15.11
2022-10-14T00:51:21.539Z,15.18
2022-10-14T00:53:48.813Z,15.10
2022-10-14T00:56:23.066Z,15.16
2022-10-14T00:58:49.831Z,15.15
2022-10-14T01:01:16.791Z,15.13
2022-10-14T01:03:43.699Z,15.15
2022-10-14T01:06:24.887Z,15.15
2022-10-14T01:08:51.506Z,15.19
2022-10-14T01:12:16.274Z,15.20
2022-10-14T01:15:18.915Z,15.09
2022-10-14T01:18:15.424Z,15.15
2022-10-14T01:21:12.892Z,15.11
2022-10-14T01:24:21.246Z,15.01
2022-10-14T01:27:07.730Z,15.06
2022-10-14T01:30:20.508Z,15.08
2022-10-14T01:33:05.578Z,15.14
2022-10-14T01:35:51.816Z,15.12
2022-10-14T01:38:31.553Z,15.06
2022-10-14T01:41:07.625Z,15.14
2022-10-14T01:43:36.374Z,15.11
2022-10-14T01:46:06.323Z,15.10
2022-10-14T01:48:37.041Z,15.12
2022-10-14T01:51:11.734Z,15.03
2022-10-14T01:53:47.842Z,15.08
2022-10-14T01:56:17.135Z,15.07
2022-10-14T01:58:45.321Z,15.12
2022-10-14T02:01:12.107Z,15.12
2022-10-14T02:03:46.128Z,15.07
2022-10-14T02:06:36.288Z,15.07
2022-10-14T02:09:17.019Z,15.10
2022-10-14T02:12:18.099Z,15.12
2022-10-14T02:14:50.631Z,15.15
2022-10-14T02:17:47.911Z,15.15
2022-10-14T02:20:25.170Z,15.14
2022-10-14T02:23:16.162Z,15.14
2022-10-14T02:25:46.502Z,15.11
2022-10-14T02:28:18.776Z,14.96
2022-10-14T02:30:53.779Z,15.09
2022-10-14T02:33:33.114Z,15.05
2022-10-14T02:36:02.521Z,15.09
2022-10-14T02:38:31.671Z,15.09
2022-10-14T02:41:04.121Z,15.03
2022-10-14T02:43:31.083Z,15.05
2022-10-14T02:46:01.567Z,15.04
2022-10-14T02:48:28.469Z,14.99
2022-10-14T02:50:55.205Z,15.08
2022-10-14T02:53:21.960Z,15.08
2022-10-14T02:55:48.736Z,15.02
2022-10-14T02:58:15.579Z,15.12
2022-10-14T03:00:42.487Z,15.05
2022-10-14T03:03:09.311Z,15.08
2022-10-14T03:05:36.203Z,15.01
2022-10-14T03:08:03.049Z,15.09
2022-10-14T03:10:29.799Z,14.99
2022-10-14T03:12:56.595Z,15.02
2022-10-14T03:15:23.590Z,15.05
2022-10-14T03:17:50.398Z,15.05
2022-10-14T03:20:17.369Z,14.99
2022-10-14T03:22:44.207Z,14.95
2022-10-14T03:25:11.389Z,14.97
2022-10-14T03:27:38.199Z,15.01
2022-10-14T03:30:05.691Z,14.97
2022-10-14T03:32:32.449Z,14.85
2022-10-14T03:34:59.215Z,14.96
2022-10-14T03:37:26.060Z,14.97
2022-10-14T03:39:53.175Z,15.06
2022-10-14T03:42:20.495Z,14.97
2022-10-14T03:44:47.460Z,15.05
2022-10-14T03:47:14.235Z,15.08
2022-10-14T03:49:41.022Z,15.07
2022-10-14T03:52:07.870Z,15.01
2022-10-14T03:54:34.589Z,15.06
2022-10-14T03:57:01.476Z,15.09
2022-10-14T03:59:28.256Z,15.06
2022-10-14T04:01:55.100Z,15.02
2022-10-14T04:04:21.910Z,14.98
2022-10-14T04:06:48.889Z,14.96
2022-10-14T04:09:15.710Z,14.98
2022-10-14T04:11:42.462Z,14.95
2022-10-14T04:14:09.519Z,15.01
2022-10-14T04:16:36.315Z,14.98
2022-10-14T04:19:03.193Z,14.97
2022-10-14T04:21:30.039Z,14.97
2022-10-14T04:23:56.825Z,15.06
2022-10-14T04:26:23.590Z,15.02
2022-10-14T04:28:50.462Z,15.07
2022-10-14T04:31:17.376Z,15.00
2022-10-14T04:33:44.288Z,15.03
2022-10-14T04:36:11.062Z,15.06
2022-10-14T04:38:37.842Z,15.02
2022-10-14T04:41:04.671Z,14.96
2022-10-14T04:43:31.645Z,15.05
2022-10-14T04:45:58.441Z,14.97
2022-10-14T04:48:25.288Z,14.95
2022-10-14T04:50:53.975Z,14.92
2022-10-14T04:53:22.410Z,14.97
2022-10-14T04:55:50.046Z,14.95
2022-10-14T04:58:17.119Z,14.88
2022-10-14T05:00:44.350Z,15.01
2022-10-14T05:03:11.226Z,14.98
2022-10-14T05:05:38.138Z,14.98
2022-10-14T05:08:05.566Z,14.97
2022-10-14T05:10:32.928Z,15.00
2022-10-14T05:12:59.743Z,14.98
2022-10-14T05:15:26.501Z,14.95
2022-10-14T05:17:53.283Z,14.91
2022-10-14T05:20:20.326Z,14.99
2022-10-14T05:22:47.086Z,14.95
2022-10-14T05:25:14.115Z,14.97
2022-10-14T05:27:40.924Z,14.98
2022-10-14T05:30:08.723Z,14.95
2022-10-14T05:32:35.528Z,15.01
2022-10-14T05:35:02.413Z,14.98
2022-10-14T05:37:29.210Z,14.95
2022-10-14T05:39:55.978Z,14.91
2022-10-14T05:42:23.068Z,14.94
2022-10-14T05:44:50.163Z,14.92
2022-10-14T05:47:17.074Z,14.93
2022-10-14T05:49:43.831Z,14.89
2022-10-14T05:52:10.575Z,14.87
2022-10-14T05:54:37.326Z,14.91
2022-10-14T05:57:04.177Z,14.92
2022-10-14T05:59:31.252Z,14.94
2022-10-14T06:01:58.074Z,14.93
2022-10-14T06:04:24.848Z,14.91
2022-10-14T06:06:51.627Z,14.93
2022-10-14T06:09:18.817Z,14.96
2022-10-14T06:11:46.046Z,14.92
2022-10-14T06:14:13.596Z,14.95
2022-10-14T06:16:40.394Z,14.94
2022-10-14T06:19:07.168Z,14.95
2022-10-14T06:21:33.992Z,14.96
2022-10-14T06:24:00.872Z,14.97
2022-10-14T06:26:27.741Z,14.96
2022-10-14T06:28:54.668Z,15.01
2022-10-14T06:31:21.562Z,15.02
2022-10-14T06:33:48.471Z,14.93
2022-10-14T06:36:15.296Z,15.03
2022-10-14T06:38:42.136Z,14.96
2022-10-14T06:41:09.308Z,15.01
2022-10-14T06:43:36.169Z,15.01
2022-10-14T06:46:03.802Z,14.96
2022-10-14T06:48:30.990Z,14.95
2022-10-14T06:51:02.122Z,14.98
2022-10-14T06:53:29.730Z,15.00
2022-10-14T06:56:06.497Z,15.01
2022-10-14T06:58:33.915Z,14.98
2022-10-14T07:01:06.687Z,15.00
2022-10-14T07:03:40.001Z,15.04
2022-10-14T07:06:08.210Z,15.02
2022-10-14T07:08:35.823Z,15.04
2022-10-14T07:11:03.481Z,15.05
2022-10-14T07:13:30.380Z,15.03
2022-10-14T07:15:57.262Z,15.06
2022-10-14T07:18:24.227Z,15.04
2022-10-14T07:20:51.011Z,15.05
2022-10-14T07:23:17.818Z,15.06
2022-10-14T07:25:44.811Z,15.05
2022-10-14T07:28:11.836Z,15.04
2022-10-14T07:30:38.718Z,15.12
2022-10-14T07:33:05.505Z,15.09
2022-10-14T07:35:32.453Z,15.14
2022-10-14T07:37:59.906Z,15.08
2022-10-14T07:40:27.519Z,15.16
2022-10-14T07:42:54.573Z,15.17
2022-10-14T07:45:21.454Z,15.19
2022-10-14T07:47:50.511Z,15.17
2022-10-14T07:50:18.094Z,15.24
2022-10-14T07:52:45.136Z,15.25
2022-10-14T07:55:12.325Z,15.26
2022-10-14T07:57:39.105Z,15.31
2022-10-14T08:00:07.079Z,15.27
2022-10-14T08:02:34.025Z,15.32
2022-10-14T08:05:25.607Z,15.33
2022-10-14T08:07:48.716Z,15.36
2022-10-14T08:10:16.193Z,15.35
2022-10-14T08:12:43.004Z,15.32
2022-10-14T08:15:10.220Z,15.38
2022-10-14T08:17:37.023Z,15.36
2022-10-14T08:20:04.664Z,15.36
2022-10-14T08:22:31.534Z,15.44
2022-10-14T08:24:58.341Z,15.39
2022-10-14T08:27:26.662Z,15.47
2022-10-14T08:29:54.401Z,15.48
2022-10-14T08:32:21.553Z,15.49
2022-10-14T08:34:48.507Z,15.44
2022-10-14T08:37:15.480Z,15.48
2022-10-14T08:39:42.413Z,15.53
2022-10-14T08:42:40.463Z,15.52
2022-10-14T08:45:33.436Z,15.52
2022-10-14T08:48:04.577Z,15.55
2022-10-14T08:50:51.000Z,15.55
2022-10-14T08:53:23.680Z,15.54
2022-10-14T08:56:00.111Z,15.57
2022-10-14T08:58:44.006Z,15.54
2022-10-14T09:01:26.683Z,15.59
2022-10-14T09:03:59.547Z,15.56
2022-10-14T09:06:32.241Z,15.64
2022-10-14T09:09:20.808Z,15.64
2022-10-14T09:11:56.095Z,15.65
2022-10-14T09:14:27.931Z,15.61
2022-10-14T09:17:04.552Z,15.69
2022-10-14T09:19:35.703Z,15.70
2022-10-14T09:22:02.977Z,15.69
2022-10-14T09:24:38.026Z,15.68
2022-10-14T09:27:07.254Z,15.67
2022-10-14T09:29:46.000Z,15.75
2022-10-14T09:32:28.672Z,15.74
2022-10-14T09:34:57.499Z,15.78
2022-10-14T09:37:29.600Z,15.79
2022-10-14T09:40:03.268Z,15.78
2022-10-14T09:42:53.309Z,15.83
2022-10-14T09:45:23.370Z,15.83
2022-10-14T09:47:59.070Z,15.75
2022-10-14T09:50:36.224Z,15.85
2022-10-14T09:53:13.851Z,15.84
2022-10-14T09:55:55.428Z,15.85
2022-10-14T09:58:48.460Z,15.84
2022-10-14T10:01:19.198Z,15.87
2022-10-14T10:03:48.419Z,15.86
2022-10-14T10:06:22.650Z,15.88
2022-10-14T10:08:58.406Z,15.96
2022-10-14T10:11:40.034Z,15.98
2022-10-14T10:14:32.957Z,15.84
2022-10-14T10:17:09.594Z,16.04
2022-10-14T10:19:45.954Z,16.05
2022-10-14T10:22:31.361Z,16.08
2022-10-14T10:25:01.104Z,16.00
2022-10-14T10:27:36.561Z,16.11
2022-10-14T10:30:21.294Z,16.16
2022-10-14T10:33:23.324Z,16.19
2022-10-14T10:39:18.287Z,16.28
2022-10-14T10:42:16.510Z,16.31
2022-10-14T10:44:59.637Z,16.34
2022-10-14T10:47:45.611Z,16.32
2022-10-14T10:50:38.103Z,16.29
2022-10-14T10:53:40.043Z,16.37
2022-10-14T10:56:14.308Z,16.38
2022-10-14T10:58:45.762Z,16.38
2022-10-14T11:01:36.633Z,16.42
2022-10-14T11:04:42.440Z,16.45
2022-10-14T11:07:45.701Z,16.45
2022-10-14T11:10:43.557Z,16.48
2022-10-14T11:13:28.214Z,16.52
2022-10-14T11:16:10.675Z,16.53
2022-10-14T11:18:50.800Z,16.49
2022-10-14T11:21:56.578Z,16.56
2022-10-14T11:24:42.275Z,16.57
2022-10-14T11:27:24.894Z,16.54
2022-10-14T11:30:13.740Z,16.58
2022-10-14T11:33:08.025Z,16.55
2022-10-14T11:36:20.111Z,16.61
2022-10-14T11:39:02.773Z,16.64
2022-10-14T11:41:54.956Z,16.64
2022-10-14T11:44:39.748Z,16.59
2022-10-14T11:47:24.048Z,16.66
2022-10-14T11:49:59.730Z,16.73
2022-10-14T11:52:36.247Z,16.73
2022-10-14T11:55:09.668Z,16.79
2022-10-14T11:58:06.926Z,16.78
2022-10-14T12:01:11.632Z,16.89
2022-10-14T12:04:06.672Z,16.92
2022-10-14T12:06:48.026Z,16.91
2022-10-14T12:12:13.668Z,17.00
2022-10-14T12:14:46.717Z,16.85
2022-10-14T12:17:32.469Z,17.12
2022-10-14T12:20:15.085Z,17.07
2022-10-14T12:22:42.632Z,17.15
2022-10-14T12:25:17.289Z,17.21
2022-10-14T12:27:44.678Z,17.36
2022-10-14T12:30:39.640Z,17.36
2022-10-14T12:33:08.995Z,17.35
2022-10-14T12:35:59.273Z,17.37
2022-10-14T12:38:29.329Z,17.36
2022-10-14T12:41:48.448Z,17.33
2022-10-14T12:44:18.898Z,17.45
2022-10-14T12:46:48.557Z,17.39
2022-10-14T12:49:30.332Z,17.37
2022-10-14T12:52:01.745Z,17.51
2022-10-14T12:54:30.073Z,17.48
2022-10-14T12:57:06.781Z,17.44
2022-10-14T12:59:37.095Z,17.52
2022-10-14T13:02:19.133Z,17.47
2022-10-14T13:04:54.954Z,17.51
2022-10-14T13:07:47.306Z,17.44
2022-10-14T13:10:45.212Z,17.53
2022-10-14T13:13:42.253Z,17.54
2022-10-14T13:16:29.229Z,17.55
2022-10-14T13:19:03.007Z,17.49
2022-10-14T13:21:38.468Z,17.55
2022-10-14T13:24:23.206Z,17.54
2022-10-14T13:27:05.319Z,17.53
2022-10-14T13:30:02.158Z,17.53
2022-10-14T13:32:59.923Z,17.47
2022-10-14T13:35:47.568Z,17.53
2022-10-14T13:38:18.099Z,17.47
2022-10-14T13:40:56.861Z,17.50
2022-10-14T13:43:36.289Z,17.47
2022-10-14T13:46:15.106Z,17.37
2022-10-14T13:48:47.357Z,17.50
2022-10-14T13:51:31.493Z,17.49
2022-10-14T13:54:17.512Z,17.50
2022-10-14T13:56:45.129Z,17.50
2022-10-14T13:59:44.385Z,17.52
2022-10-14T14:02:24.911Z,17.48
2022-10-14T14:04:56.483Z,17.48
2022-10-14T14:10:24.443Z,17.51
2022-10-14T14:12:51.489Z,17.41
2022-10-14T14:15:24.413Z,17.53
2022-10-14T14:17:51.687Z,17.50
2022-10-14T14:20:28.304Z,17.46
2022-10-14T14:22:59.450Z,17.53
2022-10-14T14:25:46.535Z,17.53
2022-10-14T14:28:19.813Z,17.54
2022-10-14T14:30:55.486Z,17.56
2022-10-14T14:33:32.657Z,17.56
2022-10-14T14:36:18.084Z,17.60
2022-10-14T14:39:02.248Z,17.60
2022-10-14T14:41:32.601Z,17.62
2022-10-14T14:44:24.762Z,17.60
2022-10-14T14:46:59.717Z,17.64
2022-10-14T14:49:35.736Z,17.65
2022-10-14T14:52:03.739Z,17.68
2022-10-14T14:54:31.172Z,17.62
2022-10-14T14:57:00.980Z,17.66
2022-10-14T14:59:40.709Z,17.64
2022-10-14T15:02:17.188Z,17.63
2022-10-14T15:04:44.619Z,17.65
2022-10-14T15:07:21.559Z,17.65
2022-10-14T15:10:00.733Z,17.70
2022-10-14T15:12:42.069Z,17.77
2022-10-14T15:15:32.174Z,17.77
2022-10-14T15:18:27.988Z,17.77
2022-10-14T15:21:19.342Z,17.83
2022-10-14T15:23:48.796Z,17.84
2022-10-14T15:26:33.430Z,17.83
2022-10-14T15:32:16.437Z,17.72
2022-10-14T15:34:44.078Z,17.74
2022-10-14T15:37:13.607Z,17.69
2022-10-14T15:39:40.480Z,17.67
2022-10-14T15:42:13.414Z,17.71
2022-10-14T15:44:40.199Z,17.70
2022-10-14T15:47:21.857Z,17.69
2022-10-14T15:49:48.786Z,17.66
2022-10-14T15:52:19.337Z,17.60
2022-10-14T15:54:49.144Z,17.63
2022-10-14T15:57:16.865Z,17.64
2022-10-14T15:59:44.135Z,17.66
2022-10-14T16:02:23.510Z,17.63
2022-10-14T16:05:15.024Z,17.64
2022-10-14T16:07:39.127Z,17.54
2022-10-14T16:10:08.797Z,17.57
2022-10-14T16:12:35.729Z,17.54
2022-10-14T16:15:03.114Z,17.58
2022-10-14T16:17:30.043Z,17.53
2022-10-14T16:19:56.923Z,17.50
2022-10-14T16:22:23.841Z,17.54
2022-10-14T16:24:50.629Z,17.46
2022-10-14T16:27:17.417Z,17.47
2022-10-14T16:29:44.238Z,17.45
2022-10-14T16:32:12.977Z,17.44
2022-10-14T16:34:39.864Z,17.41
2022-10-14T16:37:07.138Z,17.40
2022-10-14T16:39:33.963Z,17.41
2022-10-14T16:42:00.842Z,17.40
2022-10-14T16:44:27.942Z,17.38
2022-10-14T16:47:16.217Z,17.38
2022-10-14T16:49:49.323Z,17.37
2022-10-14T16:52:16.658Z,17.24
2022-10-14T16:54:43.655Z,17.36
2022-10-14T16:57:11.354Z,17.29
2022-10-14T16:59:38.711Z,17.32
2022-10-14T17:02:10.502Z,17.30
2022-10-14T17:04:39.094Z,17.32
2022-10-14T17:07:08.902Z,17.31
2022-10-14T17:09:36.855Z,17.31
2022-10-14T17:12:09.667Z,17.28
2022-10-14T17:14:39.959Z,17.24
2022-10-14T17:17:06.821Z,17.25
2022-10-14T17:19:33.679Z,17.22
2022-10-14T17:22:01.996Z,17.20
2022-10-14T17:24:29.469Z,17.22
2022-10-14T17:26:56.705Z,17.17
2022-10-14T17:29:24.043Z,17.21
2022-10-14T17:31:50.852Z,17.16
2022-10-14T17:34:17.613Z,17.15
2022-10-14T17:36:44.505Z,17.16
2022-10-14T17:39:22.770Z,17.17
2022-10-14T17:41:55.141Z,17.16
2022-10-14T17:44:21.897Z,17.11
2022-10-14T17:46:49.038Z,17.12
2022-10-14T17:49:16.019Z,17.00
2022-10-14T17:51:43.117Z,17.12
2022-10-14T17:54:12.192Z,17.09
2022-10-14T17:56:40.094Z,17.06
2022-10-14T17:59:11.185Z,17.09
2022-10-14T18:04:24.881Z,17.06
2022-10-14T18:06:52.826Z,17.06
2022-10-14T18:09:19.765Z,17.09
2022-10-14T18:14:34.016Z,17.01
2022-10-14T18:17:00.984Z,17.04
2022-10-14T18:19:27.911Z,17.06
2022-10-14T18:21:54.897Z,16.98
2022-10-14T18:24:21.652Z,16.98
2022-10-14T18:26:52.878Z,17.00
2022-10-14T18:29:19.822Z,16.96
2022-10-14T18:34:22.459Z,17.03
2022-10-14T18:36:49.370Z,16.91
2022-10-14T18:39:16.139Z,16.90
2022-10-14T18:41:43.891Z,16.89
2022-10-14T18:44:10.728Z,16.79
2022-10-14T18:46:39.350Z,16.81
2022-10-14T18:49:10.170Z,16.76
2022-10-14T18:51:40.103Z,16.68
2022-10-14T18:54:12.810Z,16.65
2022-10-14T18:56:39.877Z,16.58
2022-10-14T18:59:10.899Z,16.57
2022-10-14T19:01:39.496Z,16.58
2022-10-14T19:04:08.459Z,16.56
2022-10-14T19:06:35.790Z,16.56
2022-10-14T19:09:03.402Z,16.54
2022-10-14T19:11:32.069Z,16.58
2022-10-14T19:14:02.276Z,16.43
2022-10-14T19:16:32.370Z,16.57
2022-10-14T19:19:03.927Z,16.58
2022-10-14T19:21:31.191Z,16.58
2022-10-14T19:24:01.768Z,16.48
2022-10-14T19:26:35.996Z,16.58
2022-10-14T19:29:07.778Z,16.56
2022-10-14T19:31:37.791Z,16.55
2022-10-14T19:34:07.044Z,16.55
2022-10-14T19:36:36.365Z,16.52
2022-10-14T19:39:04.932Z,16.52
2022-10-14T19:41:38.377Z,16.43
2022-10-14T19:44:05.310Z,16.43
2022-10-14T19:46:32.196Z,16.39
2022-10-14T19:49:05.182Z,16.30
2022-10-14T19:51:33.771Z,16.41
2022-10-14T19:54:00.978Z,16.42
2022-10-14T19:56:29.111Z,16.44
2022-10-14T19:58:58.457Z,16.42
2022-10-14T20:01:28.713Z,16.41
2022-10-14T20:03:55.910Z,16.39
2022-10-14T20:06:23.520Z,16.39
2022-10-14T20:08:51.224Z,16.35
2022-10-14T20:11:21.135Z,16.36
2022-10-14T20:13:48.667Z,16.36
2022-10-14T20:16:16.265Z,16.35
2022-10-14T20:18:43.492Z,16.34
2022-10-14T20:21:13.874Z,16.30
2022-10-14T20:23:41.019Z,16.31
2022-10-14T20:26:13.683Z,16.27
2022-10-14T20:28:41.349Z,16.30
2022-10-14T20:31:11.407Z,16.30
2022-10-14T20:33:38.319Z,16.26
2022-10-14T20:36:20.496Z,16.21
2022-10-14T20:38:48.360Z,16.25
2022-10-14T20:41:25.219Z,16.22
2022-10-14T20:43:53.759Z,16.20
2022-10-14T20:46:22.621Z,16.14
2022-10-14T20:48:55.045Z,16.14
2022-10-14T20:51:22.757Z,16.17
2022-10-14T20:53:49.705Z,16.15
2022-10-14T20:56:16.689Z,16.10
2022-10-14T20:58:43.483Z,16.12
2022-10-14T21:01:17.031Z,16.16
2022-10-14T21:03:46.271Z,16.16
2022-10-14T21:06:20.576Z,16.16
2022-10-14T21:08:49.562Z,16.16
2022-10-14T21:11:20.383Z,16.17
2022-10-14T21:13:50.054Z,16.11
2022-10-14T21:16:21.421Z,16.13
2022-10-14T21:18:57.409Z,16.11
2022-10-14T21:21:28.050Z,16.02
2022-10-14T21:23:55.627Z,16.03
2022-10-14T21:26:22.862Z,16.03
2022-10-14T21:28:49.834Z,16.08
2022-10-14T21:31:19.053Z,16.12
2022-10-14T21:33:47.657Z,16.08
2022-10-14T21:36:16.430Z,15.98
2022-10-14T21:38:43.454Z,16.05
2022-10-14T21:41:10.866Z,16.03
2022-10-14T21:43:39.241Z,15.99
2022-10-14T21:46:10.063Z,15.97
2022-10-14T21:48:37.413Z,16.01
2022-10-14T21:51:16.629Z,15.99
2022-10-14T21:53:45.479Z,16.02
2022-10-14T21:56:14.382Z,15.97
2022-10-14T21:58:41.747Z,15.97
2022-10-14T22:01:15.673Z,15.91
2022-10-14T22:03:43.935Z,15.96
2022-10-14T22:06:16.723Z,15.96
2022-10-14T22:08:49.390Z,15.95
2022-10-14T22:11:23.203Z,15.93
2022-10-14T22:13:51.446Z,15.95
2022-10-14T22:16:18.696Z,15.92
2022-10-14T22:18:47.222Z,15.95
2022-10-14T22:21:16.735Z,15.96
2022-10-14T22:23:44.790Z,15.92
2022-10-14T22:26:14.438Z,15.93
2022-10-14T22:28:41.823Z,15.95
2022-10-14T22:31:17.440Z,15.94
2022-10-14T22:33:44.953Z,15.96
2022-10-14T22:36:28.265Z,15.94
2022-10-14T22:38:56.930Z,15.99
2022-10-14T22:41:25.346Z,15.93
2022-10-14T22:43:56.300Z,15.95
2022-10-14T22:46:27.369Z,15.97
2022-10-14T22:48:56.834Z,16.00
2022-10-14T22:51:35.078Z,15.97
2022-10-14T22:54:02.873Z,15.91
2022-10-14T22:56:31.752Z,15.95
2022-10-14T22:59:09.087Z,15.94
2022-10-14T23:01:36.375Z,15.94
2022-10-14T23:04:03.821Z,15.85
2022-10-14T23:06:31.249Z,15.92
2022-10-14T23:09:00.416Z,15.99
2022-10-14T23:11:30.039Z,15.90
2022-10-14T23:13:57.573Z,15.93
2022-10-14T23:16:27.783Z,15.94
2022-10-14T23:18:54.829Z,15.97
2022-10-14T23:21:29.682Z,15.95
2022-10-14T23:23:59.890Z,15.96
2022-10-14T23:26:34.458Z,15.93
2022-10-14T23:29:07.520Z,15.95
2022-10-14T23:31:36.560Z,15.90
2022-10-14T23:34:11.601Z,15.88
2022-10-14T23:36:38.741Z,15.95
2022-10-14T23:39:06.111Z,15.94
2022-10-14T23:41:33.211Z,15.90
2022-10-14T23:44:00.082Z,15.77
2022-10-14T23:46:26.917Z,15.86
2022-10-14T23:49:06.582Z,15.95
2022-10-14T23:51:35.240Z,15.94
2022-10-14T23:54:02.109Z,15.94
2022-10-14T23:56:28.944Z,15.88
2022-10-14T23:58:55.771Z,15.90
